SWA600 KMCO-MYNN
Flight info
| Callsign | SWA600 |
|---|---|
| Flight time | 0h 50m |
| Altitude | 35000 |
| Route | DDANY3 JIPOD DCT JUNIP DCT ZFP BR63V ZQA |
| Aircraft | B738/M-SDE2E3FGHIRWXY/LB1 |
Departure
| Time | 2026-04-24 21:48 |
|---|---|
| Airport | Orlando International Airport (KMCO) |
Arrival
| Time | 2026-04-24 22:38 |
|---|---|
| Airport | Lynden Pindling International Airport (MYNN) |
| Time | Latitude | Longitude | Altitude | Speed | Heading |
|---|---|---|---|---|---|
| 2026-04-24 21:33 | 28.43627 | -81.30195 | 100 ft | 0 kts | 160° |
| 2026-04-24 21:39 | 28.43633 | -81.30198 | 100 ft | 2 kts | 160° |
| 2026-04-24 21:40 | 28.43648 | -81.30204 | 99 ft | 2 kts | 160° |
| 2026-04-24 21:40 | 28.43663 | -81.30211 | 98 ft | 2 kts | 160° |
| 2026-04-24 21:40 | 28.43678 | -81.30218 | 99 ft | 2 kts | 141° |
| 2026-04-24 21:40 | 28.43687 | -81.30231 | 99 ft | 1 kts | 78° |
| 2026-04-24 21:41 | 28.43685 | -81.30238 | 98 ft | 0 kts | 68° |
| 2026-04-24 21:44 | 28.43686 | -81.30236 | 98 ft | 2 kts | 67° |
| 2026-04-24 21:44 | 28.43739 | -81.30202 | 100 ft | 16 kts | 21° |
| 2026-04-24 21:44 | 28.43826 | -81.30088 | 99 ft | 22 kts | 81° |
| 2026-04-24 21:45 | 28.43780 | -81.29935 | 101 ft | 21 kts | 137° |
| 2026-04-24 21:45 | 28.43646 | -81.29888 | 100 ft | 20 kts | 178° |
| 2026-04-24 21:45 | 28.43550 | -81.29814 | 103 ft | 20 kts | 91° |
| 2026-04-24 21:45 | 28.43551 | -81.29696 | 102 ft | 0 kts | 89° |
| 2026-04-24 21:46 | 28.43551 | -81.29683 | 102 ft | 5 kts | 89° |
| 2026-04-24 21:46 | 28.43545 | -81.29605 | 103 ft | 14 kts | 124° |
| 2026-04-24 21:46 | 28.43410 | -81.29586 | 106 ft | 37 kts | 180° |
| 2026-04-24 21:47 | 28.43146 | -81.29585 | 105 ft | 77 kts | 179° |
| 2026-04-24 21:47 | 28.42416 | -81.29575 | 99 ft | 131 kts | 179° |
| 2026-04-24 21:47 | 28.40952 | -81.29565 | 192 ft | 179 kts | 179° |
| 2026-04-24 21:47 | 28.39638 | -81.29506 | 536 ft | 200 kts | 179° |
| 2026-04-24 21:48 | 28.38194 | -81.29165 | 744 ft | 225 kts | 157° |
| 2026-04-24 21:48 | 28.37233 | -81.28577 | 873 ft | 240 kts | 148° |
| 2026-04-24 21:48 | 28.35816 | -81.27515 | 1259 ft | 252 kts | 147° |
| 2026-04-24 21:48 | 28.34375 | -81.26389 | 1961 ft | 253 kts | 137° |
| 2026-04-24 21:49 | 28.33435 | -81.24719 | 2630 ft | 254 kts | 107° |
| 2026-04-24 21:49 | 28.33060 | -81.22739 | 3305 ft | 260 kts | 100° |
| 2026-04-24 21:49 | 28.32776 | -81.20683 | 3865 ft | 268 kts | 99° |
| 2026-04-24 21:49 | 28.32498 | -81.18573 | 4503 ft | 273 kts | 99° |
| 2026-04-24 21:50 | 28.32213 | -81.16419 | 5124 ft | 278 kts | 99° |
| 2026-04-24 21:50 | 28.31917 | -81.14221 | 5699 ft | 284 kts | 99° |
| 2026-04-24 21:50 | 28.31609 | -81.11973 | 6283 ft | 290 kts | 99° |
| 2026-04-24 21:50 | 28.31297 | -81.09725 | 7001 ft | 289 kts | 99° |
| 2026-04-24 21:51 | 28.30984 | -81.07493 | 7670 ft | 290 kts | 99° |
| 2026-04-24 21:51 | 28.30662 | -81.05206 | 8212 ft | 297 kts | 98° |
| 2026-04-24 21:51 | 28.30335 | -81.02893 | 8883 ft | 298 kts | 98° |
| 2026-04-24 21:51 | 28.30004 | -81.00559 | 9514 ft | 301 kts | 98° |
| 2026-04-24 21:52 | 28.29668 | -80.98195 | 10118 ft | 305 kts | 98° |
| 2026-04-24 21:52 | 28.29323 | -80.95769 | 10389 ft | 322 kts | 98° |
| 2026-04-24 21:52 | 28.28956 | -80.93189 | 10545 ft | 341 kts | 98° |
| 2026-04-24 21:52 | 28.28566 | -80.90463 | 10694 ft | 359 kts | 99° |
| 2026-04-24 21:53 | 28.28156 | -80.87613 | 11056 ft | 369 kts | 99° |
| 2026-04-24 21:53 | 28.27528 | -80.84775 | 11605 ft | 373 kts | 110° |
| 2026-04-24 21:53 | 28.26551 | -80.82044 | 12223 ft | 375 kts | 113° |
| 2026-04-24 21:53 | 28.25529 | -80.79303 | 12786 ft | 379 kts | 113° |
| 2026-04-24 21:54 | 28.24504 | -80.76538 | 13362 ft | 382 kts | 112° |
| 2026-04-24 21:54 | 28.23484 | -80.73744 | 13902 ft | 385 kts | 112° |
| 2026-04-24 21:54 | 28.22481 | -80.70968 | 14409 ft | 387 kts | 112° |
| 2026-04-24 21:54 | 28.21455 | -80.68118 | 14894 ft | 391 kts | 112° |
| 2026-04-24 21:55 | 28.20446 | -80.65241 | 15374 ft | 395 kts | 111° |
| 2026-04-24 21:55 | 28.19473 | -80.62313 | 15824 ft | 399 kts | 110° |
| 2026-04-24 21:55 | 28.18509 | -80.59355 | 16290 ft | 402 kts | 110° |
| 2026-04-24 21:55 | 28.17534 | -80.56364 | 16787 ft | 405 kts | 110° |
| 2026-04-24 21:56 | 28.16548 | -80.53353 | 17259 ft | 408 kts | 110° |
| 2026-04-24 21:56 | 28.15551 | -80.50326 | 17718 ft | 412 kts | 110° |
| 2026-04-24 21:56 | 28.14542 | -80.47279 | 18152 ft | 415 kts | 110° |
| 2026-04-24 21:56 | 28.13523 | -80.44207 | 18525 ft | 418 kts | 110° |
| 2026-04-24 21:57 | 28.12497 | -80.41115 | 18912 ft | 420 kts | 110° |
| 2026-04-24 21:57 | 28.11463 | -80.38005 | 19329 ft | 422 kts | 110° |
| 2026-04-24 21:57 | 28.10340 | -80.34923 | 19709 ft | 425 kts | 118° |
| 2026-04-24 21:57 | 28.08684 | -80.32150 | 20061 ft | 427 kts | 132° |
| 2026-04-24 21:58 | 28.06545 | -80.29830 | 20466 ft | 427 kts | 145° |
| 2026-04-24 21:58 | 28.04109 | -80.27982 | 20855 ft | 427 kts | 149° |
| 2026-04-24 21:58 | 28.01590 | -80.26179 | 21201 ft | 430 kts | 149° |
| 2026-04-24 21:58 | 27.99048 | -80.24375 | 21541 ft | 433 kts | 149° |
| 2026-04-24 21:59 | 27.96489 | -80.22551 | 21897 ft | 435 kts | 149° |
| 2026-04-24 21:59 | 27.93929 | -80.20712 | 22255 ft | 437 kts | 149° |
| 2026-04-24 21:59 | 27.91358 | -80.18853 | 22598 ft | 440 kts | 149° |
| 2026-04-24 21:59 | 27.88778 | -80.16979 | 22931 ft | 442 kts | 149° |
| 2026-04-24 22:00 | 27.86183 | -80.15091 | 23200 ft | 447 kts | 149° |
| 2026-04-24 22:00 | 27.83546 | -80.13170 | 23475 ft | 450 kts | 149° |
| 2026-04-24 22:00 | 27.80916 | -80.11255 | 23787 ft | 451 kts | 149° |
| 2026-04-24 22:00 | 27.78271 | -80.09330 | 24101 ft | 452 kts | 149° |
| 2026-04-24 22:01 | 27.75627 | -80.07406 | 24394 ft | 454 kts | 149° |
| 2026-04-24 22:01 | 27.72962 | -80.05470 | 24659 ft | 456 kts | 149° |
| 2026-04-24 22:01 | 27.70291 | -80.03531 | 24925 ft | 458 kts | 149° |
| 2026-04-24 22:01 | 27.67609 | -80.01585 | 25198 ft | 459 kts | 149° |
| 2026-04-24 22:02 | 27.64912 | -79.99629 | 25461 ft | 461 kts | 149° |
| 2026-04-24 22:02 | 27.62208 | -79.97669 | 25717 ft | 463 kts | 149° |
| 2026-04-24 22:02 | 27.59492 | -79.95703 | 25969 ft | 465 kts | 149° |
| 2026-04-24 22:02 | 27.56796 | -79.93751 | 26218 ft | 467 kts | 149° |
| 2026-04-24 22:03 | 27.54060 | -79.91771 | 26470 ft | 468 kts | 149° |
| 2026-04-24 22:03 | 27.51312 | -79.89785 | 26721 ft | 470 kts | 149° |
| 2026-04-24 22:03 | 27.48549 | -79.87788 | 26947 ft | 472 kts | 149° |
| 2026-04-24 22:03 | 27.45781 | -79.85789 | 27185 ft | 474 kts | 149° |
| 2026-04-24 22:04 | 27.43003 | -79.83783 | 27419 ft | 475 kts | 149° |
| 2026-04-24 22:04 | 27.40213 | -79.81771 | 27635 ft | 477 kts | 149° |
| 2026-04-24 22:04 | 27.37415 | -79.79754 | 27854 ft | 479 kts | 149° |
| 2026-04-24 22:04 | 27.34596 | -79.77722 | 28088 ft | 480 kts | 149° |
| 2026-04-24 22:05 | 27.31926 | -79.75799 | 28296 ft | 482 kts | 149° |
| 2026-04-24 22:05 | 27.29099 | -79.73765 | 28510 ft | 483 kts | 149° |
| 2026-04-24 22:05 | 27.26291 | -79.71659 | 28702 ft | 486 kts | 144° |
| 2026-04-24 22:05 | 27.23733 | -79.69155 | 28897 ft | 490 kts | 135° |
| 2026-04-24 22:06 | 27.21527 | -79.66228 | 29105 ft | 492 kts | 128° |
| 2026-04-24 22:06 | 27.19464 | -79.63152 | 29321 ft | 493 kts | 127° |
| 2026-04-24 22:06 | 27.17413 | -79.60054 | 29492 ft | 495 kts | 127° |
| 2026-04-24 22:06 | 27.15352 | -79.56947 | 29683 ft | 497 kts | 128° |
| 2026-04-24 22:07 | 27.13276 | -79.53845 | 29950 ft | 497 kts | 128° |
| 2026-04-24 22:07 | 27.11194 | -79.50759 | 30234 ft | 495 kts | 128° |
| 2026-04-24 22:07 | 27.09140 | -79.47735 | 30527 ft | 493 kts | 128° |
| 2026-04-24 22:07 | 27.07055 | -79.44679 | 30771 ft | 492 kts | 128° |
| 2026-04-24 22:08 | 27.04972 | -79.41632 | 30949 ft | 493 kts | 129° |
| 2026-04-24 22:08 | 27.02885 | -79.38583 | 31187 ft | 492 kts | 129° |
| 2026-04-24 22:08 | 27.00805 | -79.35545 | 31481 ft | 489 kts | 129° |
| 2026-04-24 22:08 | 26.98737 | -79.32525 | 31762 ft | 488 kts | 129° |
| 2026-04-24 22:09 | 26.96676 | -79.29515 | 31998 ft | 487 kts | 129° |
| 2026-04-24 22:09 | 26.94612 | -79.26503 | 32206 ft | 487 kts | 129° |
| 2026-04-24 22:09 | 26.92547 | -79.23492 | 32439 ft | 486 kts | 129° |
| 2026-04-24 22:09 | 26.90491 | -79.20497 | 32685 ft | 484 kts | 129° |
| 2026-04-24 22:10 | 26.88440 | -79.17508 | 32919 ft | 483 kts | 129° |
| 2026-04-24 22:10 | 26.86396 | -79.14533 | 33136 ft | 482 kts | 129° |
| 2026-04-24 22:10 | 26.84346 | -79.11553 | 33347 ft | 482 kts | 129° |
| 2026-04-24 22:10 | 26.82308 | -79.08591 | 33578 ft | 481 kts | 129° |
| 2026-04-24 22:11 | 26.80270 | -79.05629 | 33781 ft | 480 kts | 129° |
| 2026-04-24 22:11 | 26.78233 | -79.02673 | 33988 ft | 479 kts | 129° |
| 2026-04-24 22:11 | 26.76191 | -78.99712 | 33967 ft | 482 kts | 129° |
| 2026-04-24 22:12 | 26.72122 | -78.93814 | 33916 ft | 472 kts | 129° |
| 2026-04-24 22:12 | 26.68125 | -78.88028 | 33885 ft | 469 kts | 129° |
| 2026-04-24 22:12 | 26.66149 | -78.85170 | 33657 ft | 460 kts | 129° |
| 2026-04-24 22:13 | 26.64204 | -78.82359 | 33373 ft | 455 kts | 129° |
| 2026-04-24 22:13 | 26.62275 | -78.79573 | 33137 ft | 453 kts | 129° |
| 2026-04-24 22:13 | 26.60344 | -78.76786 | 32859 ft | 451 kts | 129° |
| 2026-04-24 22:13 | 26.58433 | -78.74029 | 32489 ft | 447 kts | 129° |
| 2026-04-24 22:14 | 26.56534 | -78.71292 | 32105 ft | 444 kts | 129° |
| 2026-04-24 22:14 | 26.54646 | -78.68576 | 31712 ft | 442 kts | 130° |
| 2026-04-24 22:14 | 26.52860 | -78.66038 | 31276 ft | 442 kts | 130° |
| 2026-04-24 22:14 | 26.50956 | -78.63346 | 30897 ft | 440 kts | 130° |
| 2026-04-24 22:15 | 26.49062 | -78.60669 | 30520 ft | 439 kts | 130° |
| 2026-04-24 22:15 | 26.47179 | -78.58005 | 30134 ft | 437 kts | 130° |
| 2026-04-24 22:15 | 26.45299 | -78.55344 | 29692 ft | 436 kts | 130° |
| 2026-04-24 22:15 | 26.43421 | -78.52695 | 29219 ft | 435 kts | 130° |
| 2026-04-24 22:16 | 26.41538 | -78.50051 | 28804 ft | 433 kts | 130° |
| 2026-04-24 22:16 | 26.39669 | -78.47430 | 28379 ft | 430 kts | 130° |
| 2026-04-24 22:16 | 26.37811 | -78.44827 | 27984 ft | 428 kts | 130° |
| 2026-04-24 22:16 | 26.35965 | -78.42239 | 27605 ft | 425 kts | 130° |
| 2026-04-24 22:17 | 26.34128 | -78.39666 | 27224 ft | 423 kts | 130° |
| 2026-04-24 22:17 | 26.32297 | -78.37101 | 26836 ft | 421 kts | 130° |
| 2026-04-24 22:17 | 26.30476 | -78.34552 | 26463 ft | 419 kts | 130° |
| 2026-04-24 22:17 | 26.28665 | -78.32016 | 26087 ft | 417 kts | 130° |
| 2026-04-24 22:18 | 26.26863 | -78.29496 | 25715 ft | 416 kts | 130° |
| 2026-04-24 22:18 | 26.25082 | -78.27006 | 25350 ft | 415 kts | 130° |
| 2026-04-24 22:18 | 26.23288 | -78.24498 | 24967 ft | 413 kts | 130° |
| 2026-04-24 22:18 | 26.21492 | -78.21992 | 24568 ft | 413 kts | 130° |
| 2026-04-24 22:19 | 26.19703 | -78.19496 | 24221 ft | 411 kts | 130° |
| 2026-04-24 22:19 | 26.17920 | -78.17009 | 23857 ft | 410 kts | 130° |
| 2026-04-24 22:19 | 26.16140 | -78.14526 | 23451 ft | 410 kts | 130° |
| 2026-04-24 22:19 | 26.14358 | -78.12043 | 23035 ft | 409 kts | 130° |
| 2026-04-24 22:20 | 26.12586 | -78.09574 | 22630 ft | 407 kts | 130° |
| 2026-04-24 22:20 | 26.10821 | -78.07115 | 22244 ft | 405 kts | 130° |
| 2026-04-24 22:20 | 26.09066 | -78.04671 | 21865 ft | 403 kts | 130° |
| 2026-04-24 22:20 | 26.07318 | -78.02239 | 21490 ft | 402 kts | 130° |
| 2026-04-24 22:21 | 26.05578 | -77.99818 | 21100 ft | 400 kts | 131° |
| 2026-04-24 22:21 | 26.03843 | -77.97407 | 20731 ft | 398 kts | 131° |
| 2026-04-24 22:21 | 26.02115 | -77.95007 | 20370 ft | 397 kts | 131° |
| 2026-04-24 22:21 | 26.00390 | -77.92612 | 20000 ft | 396 kts | 131° |
| 2026-04-24 22:22 | 25.98674 | -77.90230 | 19639 ft | 394 kts | 131° |
| 2026-04-24 22:22 | 25.96958 | -77.87849 | 19267 ft | 393 kts | 131° |
| 2026-04-24 22:22 | 25.95244 | -77.85473 | 18885 ft | 393 kts | 131° |
| 2026-04-24 22:22 | 25.93558 | -77.83137 | 18523 ft | 392 kts | 131° |
| 2026-04-24 22:23 | 25.91850 | -77.80774 | 18134 ft | 392 kts | 131° |
| 2026-04-24 22:23 | 25.90150 | -77.78421 | 17735 ft | 390 kts | 131° |
| 2026-04-24 22:23 | 25.88458 | -77.76083 | 17362 ft | 387 kts | 131° |
| 2026-04-24 22:23 | 25.86775 | -77.73757 | 16990 ft | 385 kts | 131° |
| 2026-04-24 22:24 | 25.85104 | -77.71448 | 16626 ft | 382 kts | 131° |
| 2026-04-24 22:24 | 25.83444 | -77.69155 | 16265 ft | 380 kts | 131° |
| 2026-04-24 22:24 | 25.81793 | -77.66877 | 15889 ft | 378 kts | 131° |
| 2026-04-24 22:24 | 25.80151 | -77.64611 | 15542 ft | 376 kts | 130° |
| 2026-04-24 22:25 | 25.78516 | -77.62355 | 15187 ft | 374 kts | 130° |
| 2026-04-24 22:25 | 25.76890 | -77.60114 | 14830 ft | 372 kts | 130° |
| 2026-04-24 22:25 | 25.75269 | -77.57881 | 14473 ft | 371 kts | 130° |
| 2026-04-24 22:25 | 25.73654 | -77.55655 | 14121 ft | 369 kts | 130° |
| 2026-04-24 22:26 | 25.72047 | -77.53444 | 13772 ft | 367 kts | 130° |
| 2026-04-24 22:26 | 25.70444 | -77.51247 | 13362 ft | 366 kts | 133° |
| 2026-04-24 22:26 | 25.68543 | -77.49451 | 12952 ft | 353 kts | 155° |
| 2026-04-24 22:26 | 25.66293 | -77.48545 | 12590 ft | 338 kts | 173° |
| 2026-04-24 22:27 | 25.63994 | -77.48321 | 12219 ft | 327 kts | 180° |
| 2026-04-24 22:27 | 25.61745 | -77.48222 | 11831 ft | 320 kts | 181° |
| 2026-04-24 22:27 | 25.59568 | -77.48128 | 11471 ft | 315 kts | 180° |
| 2026-04-24 22:27 | 25.57393 | -77.48016 | 11117 ft | 311 kts | 180° |
| 2026-04-24 22:28 | 25.55254 | -77.47894 | 10750 ft | 305 kts | 180° |
| 2026-04-24 22:28 | 25.53151 | -77.47769 | 10411 ft | 300 kts | 179° |
| 2026-04-24 22:28 | 25.51079 | -77.47643 | 10071 ft | 295 kts | 179° |
| 2026-04-24 22:28 | 25.49044 | -77.47518 | 9721 ft | 291 kts | 179° |
| 2026-04-24 22:29 | 25.45142 | -77.47277 | 9075 ft | 272 kts | 179° |
| 2026-04-24 22:29 | 25.43276 | -77.47162 | 8740 ft | 266 kts | 179° |
| 2026-04-24 22:29 | 25.41422 | -77.47049 | 8418 ft | 267 kts | 179° |
| 2026-04-24 22:30 | 25.39570 | -77.46983 | 8034 ft | 266 kts | 188° |
| 2026-04-24 22:30 | 25.37901 | -77.47734 | 7659 ft | 257 kts | 218° |
| 2026-04-24 22:30 | 25.36489 | -77.48930 | 7304 ft | 254 kts | 219° |
| 2026-04-24 22:30 | 25.35095 | -77.50108 | 7031 ft | 250 kts | 218° |
| 2026-04-24 22:31 | 25.33709 | -77.51258 | 6715 ft | 248 kts | 218° |
| 2026-04-24 22:31 | 25.32333 | -77.52380 | 6394 ft | 241 kts | 217° |
| 2026-04-24 22:31 | 25.31002 | -77.53451 | 6092 ft | 234 kts | 217° |
| 2026-04-24 22:31 | 25.29692 | -77.54499 | 5812 ft | 230 kts | 217° |
| 2026-04-24 22:32 | 25.28411 | -77.55519 | 5532 ft | 224 kts | 217° |
| 2026-04-24 22:32 | 25.27158 | -77.56512 | 5269 ft | 222 kts | 216° |
| 2026-04-24 22:32 | 25.25918 | -77.57492 | 5016 ft | 222 kts | 216° |
| 2026-04-24 22:32 | 25.24658 | -77.58487 | 4740 ft | 223 kts | 216° |
| 2026-04-24 22:33 | 25.23394 | -77.59483 | 4465 ft | 224 kts | 215° |
| 2026-04-24 22:33 | 25.22124 | -77.60482 | 4198 ft | 224 kts | 215° |
| 2026-04-24 22:33 | 25.20845 | -77.61469 | 3921 ft | 224 kts | 209° |
| 2026-04-24 22:33 | 25.19375 | -77.61858 | 3627 ft | 217 kts | 169° |
| 2026-04-24 22:34 | 25.18457 | -77.61465 | 3521 ft | 216 kts | 148° |
| 2026-04-24 22:34 | 25.17217 | -77.60529 | 3232 ft | 213 kts | 143° |
| 2026-04-24 22:34 | 25.16086 | -77.59553 | 2972 ft | 200 kts | 140° |
| 2026-04-24 22:34 | 25.15073 | -77.58571 | 2727 ft | 188 kts | 136° |
| 2026-04-24 22:35 | 25.14147 | -77.57570 | 2466 ft | 185 kts | 134° |
| 2026-04-24 22:35 | 25.13250 | -77.56570 | 2247 ft | 182 kts | 134° |
| 2026-04-24 22:35 | 25.12385 | -77.55605 | 2013 ft | 170 kts | 134° |
| 2026-04-24 22:35 | 25.11587 | -77.54714 | 1785 ft | 158 kts | 134° |
| 2026-04-24 22:36 | 25.10823 | -77.53861 | 1593 ft | 155 kts | 133° |
| 2026-04-24 22:36 | 25.10062 | -77.53012 | 1392 ft | 157 kts | 133° |
| 2026-04-24 22:36 | 25.09286 | -77.52146 | 1184 ft | 160 kts | 133° |
| 2026-04-24 22:36 | 25.08503 | -77.51273 | 980 ft | 159 kts | 133° |
| 2026-04-24 22:37 | 25.07731 | -77.50408 | 767 ft | 157 kts | 133° |
| 2026-04-24 22:37 | 25.06973 | -77.49549 | 531 ft | 154 kts | 134° |
| 2026-04-24 22:37 | 25.06220 | -77.48714 | 278 ft | 156 kts | 134° |
| 2026-04-24 22:37 | 25.05459 | -77.47860 | 148 ft | 149 kts | 136° |
| 2026-04-24 22:38 | 25.04760 | -77.47093 | 13 ft | 129 kts | 135° |
| 2026-04-24 22:38 | 25.04403 | -77.46699 | 12 ft | 21 kts | 135° |
| 2026-04-24 22:38 | 25.04367 | -77.46659 | 11 ft | 12 kts | 135° |
| 2026-04-24 22:38 | 25.04280 | -77.46563 | 10 ft | 23 kts | 135° |
| 2026-04-24 22:39 | 25.04157 | -77.46382 | 9 ft | 35 kts | 117° |
| 2026-04-24 22:39 | 25.04126 | -77.46186 | 11 ft | 22 kts | 31° |
| 2026-04-24 22:39 | 25.04245 | -77.46261 | 11 ft | 21 kts | 313° |
| 2026-04-24 22:39 | 25.04347 | -77.46377 | 11 ft | 21 kts | 313° |
| 2026-04-24 22:40 | 25.04447 | -77.46488 | 11 ft | 20 kts | 317° |
| 2026-04-24 22:40 | 25.04545 | -77.46596 | 12 ft | 19 kts | 314° |
| 2026-04-24 22:40 | 25.04638 | -77.46701 | 13 ft | 19 kts | 315° |
| 2026-04-24 22:40 | 25.04729 | -77.46799 | 11 ft | 18 kts | 315° |
| 2026-04-24 22:41 | 25.04816 | -77.46896 | 12 ft | 18 kts | 314° |
| 2026-04-24 22:41 | 25.04914 | -77.46929 | 11 ft | 17 kts | 50° |
| 2026-04-24 22:41 | 25.04962 | -77.46818 | 11 ft | 12 kts | 66° |
| 2026-04-24 22:41 | 25.04948 | -77.46754 | 11 ft | 8 kts | 145° |
| 2026-04-24 22:42 | 25.04924 | -77.46738 | 11 ft | 0 kts | 147° |